Time;durP1;ratioP1;P1;durP2;ratioP2;P2;SDS_P1;SDS_P2;PMS_P1;PMS_P2;Temp;Humidity;BMP_temperature;BMP_pressure;BME280_temperature;BME280_humidity;BME280_pressure;Samples;Min_cycle;Max_cycle;Signal;HPM_P1;HPM_P2
2021/06/05 00:00:18;;;;;;;4.55;3.53;;;19.30;99.90;;;18.81;70.96;101160.31;4968886;28;20034;-49
2021/06/05 00:02:44;;;;;;;5.18;4.22;;;19.40;99.90;;;18.84;71.18;101170.50;4964080;28;20038;-46
2021/06/05 00:05:10;;;;;;;5.22;4.38;;;19.40;99.90;;;18.81;71.82;101166.41;4968687;28;20054;-49
2021/06/05 00:07:36;;;;;;;5.70;4.28;;;19.40;99.90;;;18.79;71.95;101165.75;4968919;28;20030;-48
2021/06/05 00:10:10;;;;;;;5.22;3.75;;;19.30;99.90;;;18.79;71.95;101168.41;4968807;28;20144;-50
2021/06/05 00:12:37;;;;;;;5.15;4.57;;;19.30;99.90;;;18.80;71.48;101164.75;4951815;28;20039;-51
2021/06/05 00:15:16;;;;;;;4.28;3.60;;;19.30;99.90;;;18.86;71.16;101169.31;4950829;28;20074;-46
2021/06/05 00:17:43;;;;;;;4.57;4.03;;;19.30;99.90;;;18.85;71.15;101165.03;4968122;28;20134;-49
2021/06/05 00:20:11;;;;;;;4.97;4.57;;;19.40;99.90;;;18.90;70.85;101173.22;4949457;29;20050;-48
2021/06/05 00:22:38;;;;;;;5.15;4.30;;;19.40;99.90;;;18.90;70.83;101169.78;4955117;28;20371;-51
2021/06/05 00:25:11;;;;;;;22.20;5.82;;;19.40;99.90;;;18.87;70.97;101165.69;4968557;28;20070;-54
2021/06/05 00:27:37;;;;;;;13.23;5.05;;;19.40;99.90;;;18.84;71.04;101154.66;4951435;28;20034;-54
2021/06/05 00:30:06;;;;;;;6.18;4.43;;;19.40;99.90;;;18.81;71.21;101152.38;4968404;28;20042;-53
2021/06/05 00:32:32;;;;;;;5.30;4.70;;;19.30;99.90;;;18.70;71.58;101142.28;4968226;28;20110;-53
2021/06/05 00:34:58;;;;;;;9.00;4.88;;;19.30;99.90;;;18.65;71.82;101150.72;4967368;28;20377;-50
2021/06/05 00:37:24;;;;;;;6.93;4.88;;;19.20;99.90;;;18.60;71.97;101147.81;4968355;28;20086;-54
2021/06/05 00:39:50;;;;;;;5.90;5.30;;;19.10;99.90;;;18.58;72.03;101152.41;4968223;28;20444;-51
2021/06/05 00:42:16;;;;;;;8.52;5.05;;;19.10;99.90;;;18.59;72.03;101146.13;4972271;28;20054;-51
2021/06/05 00:44:42;;;;;;;8.57;5.72;;;19.10;99.90;;;18.57;72.21;101148.94;4987891;28;20038;-54
2021/06/05 00:47:08;;;;;;;5.78;5.25;;;19.10;99.90;;;18.55;72.22;101147.50;4987983;28;20042;-49
2021/06/05 00:49:34;;;;;;;6.93;4.13;;;19.00;99.90;;;18.50;72.33;101144.56;4987921;28;20116;-50
2021/06/05 00:52:02;;;;;;;6.45;4.88;;;19.00;99.90;;;18.41;73.01;101150.94;4986968;28;20605;-51
2021/06/05 00:54:28;;;;;;;5.13;4.57;;;18.90;99.90;;;18.30;73.62;101143.47;4963391;28;20035;-52
2021/06/05 00:56:58;;;;;;;5.60;5.00;;;18.90;99.90;;;18.19;74.07;101139.44;4966495;28;20125;-49
2021/06/05 00:59:25;;;;;;;5.65;5.15;;;18.80;99.90;;;18.16;74.34;101145.06;4962010;28;20101;-50
2021/06/05 01:01:51;;;;;;;5.38;4.97;;;18.70;99.90;;;18.24;73.58;101143.16;4987466;28;20026;-51
2021/06/05 01:04:18;;;;;;;5.45;4.32;;;18.80;99.90;;;18.32;72.80;101134.38;4987308;28;20192;-49
2021/06/05 01:07:17;;;;;;;4.88;4.00;;;18.80;99.90;;;18.28;72.32;101130.44;4989865;28;20557;-52
2021/06/05 01:10:20;;;;;;;5.22;3.63;;;18.80;99.90;;;18.27;70.99;101126.16;4975750;28;20053;-51
2021/06/05 01:13:21;;;;;;;3.75;3.30;;;18.80;99.90;;;18.30;70.63;101122.34;4990707;28;20080;-52
2021/06/05 01:16:00;;;;;;;3.40;3.10;;;18.80;99.90;;;18.27;70.31;101131.44;4949454;28;20100;-50
2021/06/05 01:18:47;;;;;;;3.88;3.50;;;18.80;99.90;;;18.28;70.65;101133.09;4970298;28;20039;-52
2021/06/05 01:21:54;;;;;;;6.90;3.92;;;18.80;99.90;;;18.34;71.00;101134.19;4977662;28;20036;-51
2021/06/05 01:24:43;;;;;;;5.95;4.55;;;18.80;99.90;;;18.33;70.91;101132.56;4987761;28;20640;-48
2021/06/05 01:27:22;;;;;;;5.15;3.75;;;18.80;99.90;;;18.41;70.64;101137.75;4973887;28;20100;-48
2021/06/05 01:29:56;;;;;;;9.80;4.10;;;18.90;99.90;;;18.47;70.32;101137.84;4991087;28;20046;-46
2021/06/05 01:32:25;;;;;;;3.90;3.50;;;19.00;99.90;;;18.53;69.96;101141.56;4991593;28;20045;-49
2021/06/05 01:34:57;;;;;;;3.60;3.20;;;19.00;99.90;;;18.51;69.86;101138.28;4972198;28;20046;-49
2021/06/05 01:37:25;;;;;;;4.85;2.90;;;19.00;99.90;;;18.48;69.97;101136.84;4973553;28;20100;-51
2021/06/05 01:39:53;;;;;;;3.90;3.42;;;19.00;99.90;;;18.44;70.15;101122.38;4970453;28;20113;-47
2021/06/05 01:42:28;;;;;;;4.82;3.10;;;19.00;99.90;;;18.37;70.70;101126.75;4973538;28;20054;-51
2021/06/05 01:44:56;;;;;;;;;;;18.90;99.90;;;18.32;70.86;101117.72;4973152;28;20085;-49
2021/06/05 01:47:23;;;;;;;4.45;3.67;;;18.90;99.90;;;18.34;70.46;101121.00;4973166;28;20443;-52
2021/06/05 01:49:49;;;;;;;6.10;3.38;;;18.80;99.90;;;18.37;70.28;101118.00;4973773;28;20405;-52
2021/06/05 01:52:32;;;;;;;3.72;3.53;;;18.90;99.90;;;18.34;71.52;101126.28;4989054;28;20053;-52
2021/06/05 01:55:07;;;;;;;4.57;3.60;;;18.90;99.90;;;18.33;71.51;101125.47;4990377;28;20108;-53
2021/06/05 01:57:37;;;;;;;5.05;3.53;;;18.80;99.90;;;18.28;71.45;101119.06;4990883;28;20038;-50
2021/06/05 02:00:29;;;;;;;4.97;3.53;;;18.80;99.90;;;18.26;71.85;101123.72;4990038;28;20053;-54
2021/06/05 02:02:55;;;;;;;5.10;3.13;;;18.80;99.90;;;18.23;71.38;101123.06;4990378;28;20045;-51
2021/06/05 02:05:27;;;;;;;5.80;3.22;;;18.80;99.90;;;18.22;71.53;101118.78;4971829;28;20374;-50
2021/06/05 02:07:54;;;;;;;3.50;3.30;;;18.80;99.90;;;18.21;71.28;101121.59;4990608;28;20035;-52
2021/06/05 02:10:25;;;;;;;4.78;3.35;;;18.70;99.90;;;18.09;72.05;101115.94;4990269;28;20078;-49
2021/06/05 02:12:54;;;;;;;4.35;3.55;;;18.60;99.90;;;18.03;72.52;101114.00;4973161;28;20125;-53
2021/06/05 02:15:39;;;;;;;6.05;3.45;;;18.60;99.90;;;18.04;72.62;101114.81;4990125;28;20050;-49
2021/06/05 02:18:11;;;;;;;3.72;3.20;;;18.50;99.90;;;18.07;71.84;101109.19;4989985;28;20053;-46
2021/06/05 02:20:57;;;;;;;4.82;3.10;;;18.50;99.90;;;18.13;71.59;101104.03;4989949;28;20092;-49
2021/06/05 02:23:43;;;;;;;7.72;3.92;;;18.60;99.90;;;18.18;71.61;101106.13;4989805;28;20182;-49
2021/06/05 02:26:12;;;;;;;6.38;3.47;;;18.60;99.90;;;18.19;71.13;101105.97;4989634;28;20034;-53
2021/06/05 02:28:39;;;;;;;5.35;3.15;;;18.70;99.90;;;18.20;70.60;101098.88;4972715;28;20042;-48
2021/06/05 02:31:08;;;;;;;4.30;2.67;;;18.70;99.90;;;18.18;70.82;101096.41;4990301;28;20034;-50
2021/06/05 02:33:37;;;;;;;4.80;3.05;;;18.70;99.90;;;18.16;70.83;101087.84;4990078;28;20034;-48
2021/06/05 02:36:05;;;;;;;5.70;3.55;;;18.60;99.90;;;18.14;71.26;101089.84;4968857;28;20042;-49
2021/06/05 02:38:31;;;;;;;5.93;4.07;;;18.60;99.90;;;18.13;71.78;101082.94;4965801;28;20045;-49
2021/06/05 02:43:31;;;;;;;6.00;4.22;;;18.60;99.90;;;18.09;73.15;101079.00;4881167;22;20050;-49
2021/06/05 02:46:23;;;;;;;10.65;4.63;;;18.60;99.90;;;18.04;75.41;101073.44;4991966;28;20050;-49
2021/06/05 02:49:04;;;;;;;8.35;5.43;;;18.60;99.90;;;17.97;76.24;101075.16;4991760;28;20038;-49
2021/06/05 02:51:46;;;;;;;6.13;5.65;;;18.50;99.90;;;17.91;77.28;101068.00;5009353;28;20034;-51
2021/06/05 02:54:13;;;;;;;8.68;6.50;;;18.50;99.90;;;17.90;76.71;101082.16;5009173;28;20121;-49
2021/06/05 02:56:38;;;;;;;6.13;5.55;;;18.40;99.90;;;17.85;77.01;101076.59;4991630;28;20038;-51
2021/06/05 02:59:05;;;;;;;5.75;5.25;;;18.40;99.90;;;17.80;76.92;101074.50;5009417;28;20041;-48
2021/06/05 03:01:32;;;;;;;6.88;3.92;;;18.30;99.90;;;17.77;76.38;101071.38;5009226;28;20596;-50
2021/06/05 03:04:00;;;;;;;9.00;4.50;;;18.40;99.90;;;17.71;75.90;101067.66;5009207;28;20034;-48
2021/06/05 03:06:29;;;;;;;6.63;4.30;;;18.30;99.90;;;17.56;76.49;101077.25;4991402;28;20025;-49
2021/06/05 03:08:57;;;;;;;5.72;4.70;;;18.10;99.90;;;17.42;77.06;101073.59;5008870;28;20041;-52
2021/06/05 03:11:24;;;;;;;5.60;4.95;;;18.00;99.90;;;17.33;77.70;101069.34;4991255;28;20477;-47
2021/06/05 03:13:50;;;;;;;7.70;4.82;;;17.90;99.90;;;17.23;78.12;101080.09;5009105;28;20478;-48
2021/06/05 03:16:18;;;;;;;4.80;4.38;;;17.80;99.90;;;17.17;78.34;101072.06;5008885;28;20448;-50
2021/06/05 03:18:45;;;;;;;6.88;4.90;;;17.70;99.90;;;17.11;79.08;101078.03;5008811;28;20529;-51
2021/06/05 03:21:17;;;;;;;6.35;5.07;;;17.70;99.90;;;17.06;79.85;101072.44;5009233;28;20431;-50
2021/06/05 03:23:46;;;;;;;5.80;5.20;;;17.60;99.90;;;17.04;80.11;101075.25;4991334;28;20406;-50
2021/06/05 03:26:13;;;;;;;6.90;6.25;;;17.60;99.90;;;17.01;80.13;101059.84;5007269;28;20077;-50
2021/06/05 03:28:40;;;;;;;7.07;6.35;;;17.60;99.90;;;16.99;80.17;101050.47;5008210;28;20336;-51
2021/06/05 03:31:07;;;;;;;6.07;5.45;;;17.60;99.90;;;17.03;79.94;101051.72;5008580;28;20753;-48
2021/06/05 03:33:33;;;;;;;5.85;5.13;;;17.60;99.90;;;17.05;79.40;101039.22;5008757;28;20026;-50
2021/06/05 03:36:00;;;;;;;5.45;4.13;;;17.50;99.90;;;17.11;78.58;101033.28;5008586;28;20034;-47
2021/06/05 03:38:27;;;;;;;6.35;3.88;;;17.60;99.90;;;17.21;76.95;101039.13;5008419;28;20030;-51
2021/06/05 03:40:55;;;;;;;4.70;2.80;;;17.70;99.90;;;17.45;74.63;101043.44;5008531;28;20127;-51
2021/06/05 03:43:23;;;;;;;7.03;5.93;;;17.90;99.90;;;17.40;75.78;101036.06;4990273;28;20049;-48
2021/06/05 03:45:51;;;;;;;7.95;6.95;;;17.90;99.90;;;17.33;77.83;101037.75;5008507;28;20029;-46
2021/06/05 03:48:17;;;;;;;8.52;7.03;;;17.90;99.90;;;17.28;79.21;101040.09;5008253;28;20030;-51
2021/06/05 03:50:50;;;;;;;8.13;7.35;;;17.90;99.90;;;17.14;81.56;101043.47;5008380;28;20138;-51
2021/06/05 03:53:18;;;;;;;10.80;6.32;;;17.80;99.90;;;17.08;80.92;101044.16;4974831;28;20065;-50
2021/06/05 03:55:44;;;;;;;5.95;5.35;;;17.70;99.90;;;17.12;80.28;101034.91;5008350;28;20033;-51
2021/06/05 03:58:11;;;;;;;6.05;5.20;;;17.70;99.90;;;17.17;79.68;101038.66;5008320;28;20148;-50
2021/06/05 04:00:44;;;;;;;7.15;5.35;;;17.70;99.90;;;17.14;79.86;101038.19;5008740;28;20112;-51
2021/06/05 04:03:11;;;;;;;7.10;6.40;;;17.70;99.90;;;17.17;79.81;101038.66;5008527;28;20473;-52
2021/06/05 04:05:38;;;;;;;6.30;5.70;;;17.70;99.90;;;17.22;79.32;101032.88;5008266;28;20026;-50
2021/06/05 04:08:07;;;;;;;8.13;5.30;;;17.70;99.90;;;17.27;79.16;101032.38;5008227;28;20177;-52
2021/06/05 04:10:34;;;;;;;8.63;5.93;;;17.70;99.90;;;17.36;78.88;101037.41;5008078;28;20361;-52
2021/06/05 04:13:00;;;;;;;10.15;4.97;;;17.80;99.90;;;17.46;78.14;101026.66;4990377;28;20468;-53
2021/06/05 04:15:30;;;;;;;6.53;5.95;;;17.90;99.90;;;17.49;78.45;101029.72;5007841;28;20397;-53
2021/06/05 04:18:01;;;;;;;9.38;6.60;;;18.00;99.90;;;17.54;78.95;101024.75;5008174;28;20069;-51
2021/06/05 04:20:28;;;;;;;6.60;6.00;;;18.10;99.90;;;17.51;79.21;101019.81;5007963;28;20041;-49
2021/06/05 04:22:54;;;;;;;6.53;5.45;;;18.10;99.90;;;17.52;79.17;101020.66;5007853;28;20238;-49
2021/06/05 04:25:21;;;;;;;6.70;6.10;;;18.10;99.90;;;17.55;79.24;101012.41;4990234;28;20108;-53
2021/06/05 04:27:48;;;;;;;7.88;7.07;;;18.10;99.90;;;17.65;78.77;101012.16;5007899;28;20033;-54
2021/06/05 04:30:16;;;;;;;5.30;4.63;;;18.20;99.90;;;17.77;77.64;101013.41;5007876;28;20209;-51
2021/06/05 04:32:44;;;;;;;6.13;5.60;;;18.30;99.90;;;17.83;77.13;101010.06;5006327;28;20041;-52
2021/06/05 04:35:11;;;;;;;9.30;5.38;;;18.40;99.90;;;17.98;76.93;101016.16;4989716;28;20034;-49
2021/06/05 04:37:37;;;;;;;4.45;4.07;;;18.50;99.90;;;17.98;75.73;101015.34;5007745;28;20469;-52
2021/06/05 04:40:05;;;;;;;7.70;4.18;;;18.50;99.90;;;17.99;75.56;101015.16;5007918;28;20088;-51
2021/06/05 04:42:32;;;;;;;6.00;3.75;;;18.50;99.90;;;17.96;75.42;101007.63;5010997;28;20052;-52
2021/06/05 04:44:57;;;;;;;7.22;3.55;;;18.60;99.90;;;17.95;75.31;101007.81;5012086;28;20034;-51
2021/06/05 04:47:23;;;;;;;6.32;4.03;;;18.60;99.90;;;18.11;74.65;101000.56;4994189;28;20295;-49
2021/06/05 04:49:50;;;;;;;5.03;3.40;;;18.70;99.90;;;18.43;73.41;100999.34;5011525;28;20033;-49
2021/06/05 04:52:16;;;;;;;5.65;4.07;;;19.10;99.90;;;19.17;70.68;100999.25;5011823;28;20041;-49
2021/06/05 04:54:42;;;;;;;5.65;3.72;;;19.80;99.90;;;20.56;66.76;100998.50;5011624;28;20038;-50
2021/06/05 04:57:08;;;;;;;6.18;4.57;;;21.30;99.90;;;21.79;63.73;100992.84;5011515;28;20185;-50
2021/06/05 04:59:34;;;;;;;4.30;3.90;;;23.20;99.90;;;22.65;61.82;100994.50;5011737;28;20087;-48
2021/06/05 05:02:00;;;;;;;6.97;4.25;;;24.50;98.40;;;23.46;59.67;100995.47;5011469;28;20030;-48
2021/06/05 05:04:26;;;;;;;6.60;3.92;;;25.50;94.80;;;23.98;58.20;100993.41;5011755;28;20034;-52
2021/06/05 05:06:52;;;;;;;4.68;4.20;;;26.20;92.30;;;24.06;57.82;100989.66;4993736;28;20038;-50
2021/06/05 05:09:18;;;;;;;4.20;3.80;;;26.40;90.30;;;23.45;59.59;100988.53;5011371;28;20038;-51
2021/06/05 05:11:44;;;;;;;4.57;4.05;;;25.90;90.20;;;23.82;58.70;100988.66;5011416;28;20041;-50
2021/06/05 05:14:12;;;;;;;5.70;3.47;;;25.80;91.00;;;24.15;56.87;100989.13;5011294;28;20061;-54
2021/06/05 05:16:39;;;;;;;3.65;3.35;;;26.00;88.30;;;24.65;55.40;100991.63;5011315;28;20041;-50
2021/06/05 05:19:06;;;;;;;4.20;3.78;;;26.40;86.80;;;24.57;54.96;100983.16;5011229;28;20061;-49
2021/06/05 05:21:33;;;;;;;5.50;3.35;;;26.90;83.30;;;24.88;53.54;100988.28;5011521;28;20034;-50
2021/06/05 05:23:59;;;;;;;4.47;3.13;;;27.20;79.20;;;25.21;52.08;100982.50;5011204;28;20431;-52
2021/06/05 05:26:26;;;;;;;4.22;2.40;;;27.70;74.40;;;25.10;52.03;100996.59;5010902;28;20026;-51
2021/06/05 05:28:55;;;;;;;3.65;3.05;;;27.50;74.10;;;24.59;52.59;100987.22;5011265;28;20107;-52
2021/06/05 05:31:25;;;;;;;3.55;2.70;;;27.20;74.10;;;24.36;52.19;100982.59;5010834;28;20037;-49
2021/06/05 05:33:52;;;;;;;5.95;3.28;;;27.00;73.20;;;25.03;52.00;100988.72;5010944;28;20042;-50
2021/06/05 05:36:30;;;;;;;6.43;2.78;;;27.30;73.70;;;25.41;50.11;100991.00;5010893;28;20026;-52
2021/06/05 05:38:56;;;;;;;4.85;2.63;;;28.30;69.20;;;25.84;50.16;100981.91;5011291;28;20468;-53
2021/06/05 05:41:24;;;;;;;4.18;2.90;;;28.80;68.50;;;26.33;49.16;100987.78;5010984;28;20108;-49
2021/06/05 05:43:51;;;;;;;6.07;3.00;;;29.20;68.00;;;26.43;49.05;100988.00;5010582;28;20060;-48
2021/06/05 05:46:19;;;;;;;4.30;3.08;;;29.40;66.70;;;25.83;50.76;100996.28;5010577;28;20116;-49
2021/06/05 05:48:45;;;;;;;5.72;3.25;;;28.90;66.80;;;25.35;52.05;100993.78;5010683;28;20213;-47
2021/06/05 05:51:15;;;;;;;6.55;3.63;;;28.40;68.50;;;25.39;50.96;100987.75;5010369;28;20465;-50
2021/06/05 05:53:41;;;;;;;2.90;2.67;;;28.30;67.80;;;25.54;50.74;100991.81;5010451;28;20121;-52
2021/06/05 05:56:12;;;;;;;3.55;2.88;;;28.40;68.00;;;25.33;52.13;100994.00;5010588;28;20035;-49
2021/06/05 05:58:44;;;;;;;3.22;2.70;;;28.20;68.70;;;25.50;51.02;100993.34;5010530;28;20430;-50
2021/06/05 06:01:12;;;;;;;3.67;3.08;;;28.40;67.90;;;25.65;50.98;100989.19;5010159;28;20449;-52
2021/06/05 06:03:39;;;;;;;3.00;2.55;;;28.50;67.70;;;25.89;50.68;100987.34;5008803;28;20038;-53
2021/06/05 06:06:08;;;;;;;6.95;3.35;;;28.80;67.10;;;25.92;50.47;100978.06;5010388;28;20046;-50
2021/06/05 06:08:35;;;;;;;3.13;2.92;;;28.70;67.70;;;25.98;50.00;100979.81;5010416;28;20030;-51
2021/06/05 06:11:03;;;;;;;4.72;2.83;;;29.00;65.40;;;25.93;50.75;100979.69;5010179;28;20034;-50
2021/06/05 06:13:29;;;;;;;2.95;2.47;;;28.90;66.90;;;26.06;49.94;100976.75;5010069;28;20080;-53
2021/06/05 06:15:55;;;;;;;4.93;2.92;;;29.00;65.40;;;26.81;48.53;100970.53;5010115;28;20113;-52
2021/06/05 06:18:21;;;;;;;4.30;2.75;;;29.50;65.30;;;28.18;45.85;100972.72;5010019;28;20143;-52
2021/06/05 06:20:52;;;;;;;3.47;2.50;;;31.10;62.60;;;28.42;44.85;100977.59;5010255;28;20038;-52
2021/06/05 06:23:27;;;;;;;3.40;2.50;;;31.70;60.40;;;28.94;43.35;100977.09;5009973;28;20038;-49
2021/06/05 06:25:55;;;;;;;2.50;2.30;;;32.50;58.20;;;28.79;43.71;100973.44;5009892;28;20038;-50
2021/06/05 06:28:28;;;;;;;6.68;2.50;;;32.20;57.70;;;29.23;42.47;100977.66;5009690;28;20476;-51
2021/06/05 06:30:56;;;;;;;3.25;2.65;;;32.70;56.30;;;28.46;44.23;100975.22;5009744;28;20174;-50
2021/06/05 06:33:22;;;;;;;2.35;2.08;;;32.40;56.30;;;27.77;45.92;100972.19;5009813;28;20536;-48
2021/06/05 06:35:49;;;;;;;4.65;2.72;;;31.70;57.40;;;28.20;45.30;100974.09;5009902;28;20053;-55
2021/06/05 06:38:24;;;;;;;3.08;2.13;;;31.90;57.50;;;28.30;44.65;100976.94;5009623;28;20046;-49
2021/06/05 06:40:51;;;;;;;3.63;2.30;;;32.10;57.50;;;28.97;43.55;100971.22;5009424;28;20554;-50
2021/06/05 06:43:22;;;;;;;3.08;2.63;;;32.50;56.20;;;29.27;43.35;100978.75;5009159;28;20049;-51
2021/06/05 06:45:49;;;;;;;3.15;2.83;;;32.60;56.30;;;29.02;43.82;100983.88;5009420;28;20037;-51
2021/06/05 06:48:15;;;;;;;2.47;1.92;;;32.80;56.10;;;29.48;43.23;100986.97;5009298;28;20511;-51
2021/06/05 06:50:41;;;;;;;4.60;2.92;;;33.20;55.40;;;29.61;42.20;100991.91;5009287;28;20034;-53
2021/06/05 06:53:08;;;;;;;4.18;2.33;;;33.50;53.60;;;29.91;41.11;100985.91;5009204;28;20041;-58
2021/06/05 06:55:34;;;;;;;2.33;1.88;;;34.10;52.40;;;30.67;40.25;100986.28;5009326;28;20129;-58
2021/06/05 06:58:00;;;;;;;3.05;2.30;;;34.60;51.60;;;31.01;39.60;100981.22;5008969;28;20065;-59
2021/06/05 07:00:33;;;;;;;7.03;2.47;;;35.30;50.10;;;31.55;38.64;100986.91;5009271;28;20029;-54
2021/06/05 07:02:59;;;;;;;2.08;1.88;;;35.80;49.30;;;31.38;38.06;100985.56;5008555;28;20042;-54
2021/06/05 07:05:25;;;;;;;3.40;1.95;;;36.00;48.70;;;31.68;38.13;100991.72;5008413;28;20527;-52
2021/06/05 07:07:51;;;;;;;3.17;2.30;;;36.00;48.90;;;30.36;40.07;100985.34;5008753;28;20513;-53
2021/06/05 07:10:22;;;;;;;4.60;2.55;;;34.80;50.20;;;28.67;43.98;100985.13;5008901;28;20088;-56
2021/06/05 07:12:48;;;;;;;3.28;2.63;;;32.20;55.10;;;27.51;46.53;100983.50;4991285;28;20038;-52
2021/06/05 07:15:14;;;;;;;5.20;2.85;;;29.80;60.00;;;26.21;49.81;100989.63;5008722;28;20033;-50
2021/06/05 07:17:40;;;;;;;4.22;2.70;;;28.30;63.70;;;26.29;48.80;100984.75;5009009;28;20038;-54
2021/06/05 07:20:07;;;;;;;6.47;2.92;;;27.60;64.90;;;26.06;49.25;100980.22;5008785;28;20543;-50
2021/06/05 07:22:33;;;;;;;3.40;2.97;;;27.20;66.00;;;25.59;50.62;100976.75;5008467;28;20044;-57
2021/06/05 07:24:58;;;;;;;3.42;2.60;;;26.90;67.10;;;26.18;48.80;100974.06;5008365;28;20049;-52
2021/06/05 07:27:24;;;;;;;3.22;2.67;;;26.90;67.40;;;26.46;47.79;100976.84;5008809;28;20038;-52
2021/06/05 07:29:50;;;;;;;3.53;2.65;;;27.00;67.20;;;26.62;47.41;100978.75;5008944;28;20077;-54
2021/06/05 07:32:16;;;;;;;2.97;2.70;;;27.20;67.10;;;26.31;49.14;100974.66;5008873;28;20466;-51
2021/06/05 07:34:42;;;;;;;3.17;2.70;;;27.10;67.90;;;26.09;48.82;100977.09;5008447;28;20403;-50
2021/06/05 07:37:11;;;;;;;2.50;2.28;;;27.00;67.60;;;26.61;47.60;100979.78;5008518;28;20034;-55
2021/06/05 07:39:38;;;;;;;11.23;3.83;;;27.10;67.50;;;26.30;48.75;100982.88;5008543;28;20084;-55
2021/06/05 07:42:07;;;;;;;4.90;2.72;;;27.10;68.10;;;26.60;48.11;100978.16;5008487;28;20049;-53
2021/06/05 07:44:34;;;;;;;5.22;2.63;;;27.30;68.30;;;27.14;45.99;100984.00;4988823;28;20054;-54
2021/06/05 07:47:03;;;;;;;4.10;1.73;;;27.70;65.90;;;27.77;44.05;100982.06;4989134;28;20399;-57
2021/06/05 07:49:35;;;;;;;2.92;1.98;;;28.10;64.50;;;27.80;44.59;100977.03;4988673;28;20493;-56
2021/06/05 07:52:06;;;;;;;4.95;2.25;;;28.40;64.40;;;28.19;43.92;100979.69;4988615;28;20117;-53
2021/06/05 07:54:32;;;;;;;3.65;2.53;;;28.80;64.00;;;27.85;44.95;100977.13;4988544;28;20121;-53
2021/06/05 07:56:58;;;;;;;2.63;2.42;;;28.80;64.50;;;27.59;45.55;100977.78;4988430;28;20042;-55
2021/06/05 07:59:27;;;;;;;3.83;2.35;;;28.40;65.20;;;27.20;45.74;100980.34;4970855;28;20045;-53
2021/06/05 08:01:53;;;;;;;4.35;2.10;;;28.10;64.90;;;27.48;45.22;100984.00;4988323;28;20392;-54
2021/06/05 08:04:20;;;;;;;6.90;2.30;;;28.00;65.30;;;27.24;46.04;100969.97;4970785;28;20030;-57
2021/06/05 08:06:48;;;;;;;5.43;2.40;;;28.00;65.90;;;27.62;46.05;100979.97;4970750;28;20042;-53
2021/06/05 08:09:14;;;;;;;2.25;2.00;;;28.20;67.00;;;27.89;45.23;100986.25;4988312;28;20289;-53
2021/06/05 08:11:40;;;;;;;2.53;2.13;;;28.30;66.10;;;27.92;44.30;100980.41;4987908;28;20469;-56
2021/06/05 08:14:08;;;;;;;3.70;1.90;;;28.50;65.10;;;27.91;43.95;100984.13;4987266;28;20114;-55
2021/06/05 08:16:37;;;;;;;6.88;2.28;;;28.40;64.20;;;27.81;43.04;100983.22;4987451;28;20058;-56
2021/06/05 08:19:10;;;;;;;5.60;1.80;;;28.40;62.70;;;27.80;42.45;100977.03;4966882;28;20030;-55
2021/06/05 08:21:38;;;;;;;3.38;1.63;;;28.40;62.10;;;27.92;43.00;100977.72;4988386;28;20038;-54
2021/06/05 08:24:05;;;;;;;7.43;1.80;;;28.40;63.20;;;27.82;42.77;100979.47;4971279;28;20903;-53
2021/06/05 08:26:31;;;;;;;3.20;2.13;;;28.40;62.40;;;27.85;42.98;100974.44;4984625;28;20374;-55
2021/06/05 08:28:57;;;;;;;4.00;2.00;;;28.30;62.90;;;28.13;42.65;100980.69;4983173;28;20113;-59
2021/06/05 08:31:24;;;;;;;5.38;2.42;;;28.50;62.90;;;28.13;42.67;100976.13;4987902;28;20026;-55
2021/06/05 08:33:50;;;;;;;7.68;2.50;;;28.50;62.80;;;28.34;42.61;100977.25;4969055;28;20049;-50
2021/06/05 08:36:21;;;;;;;6.50;2.15;;;28.80;62.90;;;28.70;42.04;100973.09;4984699;28;20081;-54
2021/06/05 08:38:47;;;;;;;5.63;2.30;;;29.00;62.70;;;28.58;42.83;100977.78;4965276;28;20374;-51
2021/06/05 08:41:44;;;;;;;3.38;2.40;;;29.00;63.20;;;28.40;42.87;100976.22;4986291;28;20034;-55
2021/06/05 08:44:40;;;;;;;4.88;2.90;;;29.00;63.00;;;28.12;42.80;100976.38;4986639;28;20050;-55
2021/06/05 08:47:32;;;;;;;5.13;2.40;;;28.80;62.70;;;28.33;43.50;100965.72;4989968;28;20041;-54
2021/06/05 08:50:10;;;;;;;3.25;1.80;;;28.70;63.90;;;28.69;43.18;100958.88;4989822;28;20022;-55
2021/06/05 08:53:17;;;;;;;2.85;1.83;;;29.00;64.40;;;29.23;41.59;100952.69;4990889;28;20137;-54
2021/06/05 08:55:55;;;;;;;4.45;2.40;;;29.60;63.40;;;29.31;40.94;100955.69;4992141;28;20105;-55
2021/06/05 08:58:39;;;;;;;5.68;2.08;;;29.70;61.40;;;29.07;41.68;100954.41;5007531;28;20037;-59
2021/06/05 09:01:21;;;;;;;4.78;2.20;;;29.60;62.30;;;29.55;39.74;100955.34;4991307;28;20088;-59
2021/06/05 09:03:59;;;;;;;3.60;2.55;;;29.90;60.90;;;29.34;40.33;100957.84;5007531;28;20040;-57
2021/06/05 09:06:39;;;;;;;3.17;2.22;;;29.90;60.20;;;29.30;40.00;100964.78;4989684;28;20422;-60
2021/06/05 09:09:11;;;;;;;3.63;1.90;;;29.80;60.20;;;29.61;38.77;100962.38;5007769;28;20061;-60
2021/06/05 09:11:37;;;;;;;3.28;1.65;;;30.00;59.00;;;29.59;38.60;100969.88;5007644;28;20061;-55
2021/06/05 09:14:03;;;;;;;5.25;1.98;;;30.00;58.60;;;29.38;38.50;100960.84;5007391;28;20319;-54
2021/06/05 09:16:48;;;;;;;2.05;1.83;;;29.90;57.50;;;29.23;37.71;100955.38;5008228;28;20052;-57
2021/06/05 09:19:29;;;;;;;;;;;29.80;57.20;;;29.36;37.43;100961.09;4992106;28;20064;-61
2021/06/05 09:22:08;;;;;;;5.85;1.10;;;29.80;56.90;;;29.47;37.52;100958.50;5008292;28;20016;-56
2021/06/05 09:24:46;;;;;;;3.83;1.40;;;29.90;57.00;;;29.56;36.53;100956.97;5008008;28;20050;-58
2021/06/05 09:27:18;;;;;;;3.80;1.75;;;30.00;56.80;;;29.51;37.57;100965.00;5009595;28;20077;-53
2021/06/05 09:30:21;;;;;;;5.65;1.52;;;29.90;56.80;;;29.61;35.80;100955.13;5011953;28;20166;-49
2021/06/05 09:32:47;;;;;;;1.83;1.50;;;30.00;55.90;;;29.17;37.16;100954.50;5011650;28;20621;-57
2021/06/05 09:35:15;;;;;;;4.30;1.75;;;29.80;55.20;;;29.10;37.50;100956.59;5011621;28;20044;-56
2021/06/05 09:38:05;;;;;;;1.77;1.40;;;29.50;56.50;;;29.63;36.84;100947.63;5011610;28;20108;-56
2021/06/05 09:40:33;;;;;;;3.30;1.75;;;29.80;56.60;;;29.42;37.55;100945.06;5010480;28;20037;-54
2021/06/05 09:43:08;;;;;;;3.05;1.30;;;29.90;56.50;;;28.88;38.17;100945.13;4994048;28;20208;-56
2021/06/05 09:46:02;;;;;;;3.22;1.30;;;29.40;57.00;;;29.37;37.19;100943.09;5011687;28;20600;-55
2021/06/05 09:48:28;;;;;;;1.75;1.20;;;29.70;56.50;;;29.56;36.25;100947.03;5011170;28;20038;-56
2021/06/05 09:51:31;;;;;;;3.22;1.10;;;29.90;55.70;;;29.66;34.94;100940.94;4993298;28;20376;-57
2021/06/05 09:54:12;;;;;;;3.67;1.05;;;30.00;54.70;;;29.57;35.13;100942.47;5011251;28;20501;-56
2021/06/05 09:56:46;;;;;;;5.43;0.88;;;30.00;54.50;;;29.68;35.81;100936.13;4994384;28;20525;-52
2021/06/05 09:59:28;;;;;;;5.05;0.68;;;30.00;55.00;;;29.97;34.41;100936.53;5010936;28;20545;-52
2021/06/05 10:02:04;;;;;;;4.60;1.55;;;30.30;54.30;;;30.15;33.85;100937.97;4993337;28;20103;-57
2021/06/05 10:04:37;;;;;;;2.25;0.70;;;30.50;52.80;;;30.06;34.23;100929.59;4993181;28;20049;-57
2021/06/05 10:07:20;;;;;;;2.38;0.60;;;30.50;53.00;;;30.54;33.29;100930.28;4993291;28;20030;-55
2021/06/05 10:09:46;;;;;;;5.97;0.50;;;30.70;53.00;;;30.39;33.57;100928.38;5010668;28;20038;-61
2021/06/05 10:12:27;;;;;;;2.55;0.60;;;30.70;52.10;;;30.50;32.06;100930.00;4993068;28;20049;-56
2021/06/05 10:15:29;;;;;;;1.40;0.60;;;30.80;50.60;;;29.92;30.80;100921.19;5011249;28;20033;-60
2021/06/05 10:18:06;;;;;;;2.35;0.60;;;30.60;48.80;;;29.79;33.12;100916.28;4997566;28;20681;-55
2021/06/05 10:21:20;;;;;;;3.63;0.50;;;30.20;51.20;;;29.85;33.14;100914.44;5010761;28;20372;-58
2021/06/05 10:23:57;;;;;;;3.20;0.60;;;30.20;51.60;;;30.10;33.19;100922.63;4993298;28;20104;-58
2021/06/05 10:26:38;;;;;;;2.95;0.60;;;30.40;51.80;;;29.59;32.91;100910.81;5010661;28;20036;-52
2021/06/05 10:29:25;;;;;;;3.13;0.85;;;30.20;50.40;;;29.84;33.53;100916.31;4993544;28;20041;-58
2021/06/05 10:31:52;;;;;;;1.02;0.40;;;30.10;51.90;;;30.32;32.87;100919.75;5010444;28;20485;-56